Time;durP1;ratioP1;P1;durP2;ratioP2;P2;SDS_P1;SDS_P2;PMS_P1;PMS_P2;Temp;Humidity;BMP_temperature;BMP_pressure;BME280_temperature;BME280_humidity;BME280_pressure;Samples;Min_cycle;Max_cycle;Signal;HPM_P1;HPM_P2
2022/04/16 00:00:27;;;;;;;6.40;5.83;;;;;;;;;;5053915;28;20479;-73
2022/04/16 00:02:54;;;;;;;5.70;5.50;;;;;;;;;;5053687;28;20481;-73
2022/04/16 00:05:21;;;;;;;6.83;6.20;;;;;;;;;;5054023;28;20410;-72
2022/04/16 00:08:06;;;;;;;5.70;5.40;;;;;;;;;;5054346;28;20504;-74
2022/04/16 00:10:33;;;;;;;6.50;6.10;;;;;;;;;;5053849;28;21020;-71
2022/04/16 00:12:59;;;;;;;6.23;6.03;;;;;;;;;;5054100;28;20755;-72
2022/04/16 00:15:26;;;;;;;6.20;5.60;;;;;;;;;;5052578;28;20902;-73
2022/04/16 00:17:52;;;;;;;5.90;5.50;;;;;;;;;;5053938;28;20406;-72
2022/04/16 00:20:18;;;;;;;6.90;6.27;;;;;;;;;;5052465;28;20765;-72
2022/04/16 00:22:44;;;;;;;5.83;5.53;;;;;;;;;;5052395;28;20478;-72
2022/04/16 00:25:11;;;;;;;6.30;5.90;;;;;;;;;;5053628;28;20407;-72
2022/04/16 00:27:39;;;;;;;5.77;5.10;;;;;;;;;;5053866;28;20771;-73
2022/04/16 00:30:05;;;;;;;5.80;5.40;;;;;;;;;;5053621;28;20401;-73
2022/04/16 00:32:31;;;;;;;5.47;5.07;;;;;;;;;;5052530;28;20427;-72
2022/04/16 00:34:57;;;;;;;5.90;5.70;;;;;;;;;;5053080;28;20882;-72
2022/04/16 00:37:23;;;;;;;5.37;5.07;;;;;;;;;;5052872;28;20438;-71
2022/04/16 00:39:49;;;;;;;4.70;4.60;;;;;;;;;;5053211;28;20470;-72
2022/04/16 00:42:15;;;;;;;5.37;5.03;;;;;;;;;;5053087;28;20485;-72
2022/04/16 00:44:41;;;;;;;5.40;5.13;;;;;;;;;;5053336;28;20444;-72
2022/04/16 00:47:07;;;;;;;5.30;4.83;;;;;;;;;;5053318;28;20411;-72
2022/04/16 00:49:33;;;;;;;5.10;4.90;;;;;;;;;;5053084;28;20407;-71
2022/04/16 00:52:01;;;;;;;5.10;4.80;;;;;;;;;;5053288;28;20414;-72
2022/04/16 00:54:27;;;;;;;5.10;4.80;;;;;;;;;;5052918;28;20395;-72
2022/04/16 00:56:53;;;;;;;5.63;5.27;;;;;;;;;;5051843;28;20768;-74
2022/04/16 00:59:19;;;;;;;4.87;4.57;;;;;;;;;;5051814;28;20522;-73
2022/04/16 01:01:45;;;;;;;4.90;4.63;;;;;;;;;;5053067;28;20789;-73
2022/04/16 01:04:11;;;;;;;4.57;4.30;;;;;;;;;;5051842;28;20426;-73
2022/04/16 01:06:37;;;;;;;4.90;4.50;;;;;;;;;;5053147;28;20437;-73
2022/04/16 01:09:04;;;;;;;5.23;5.00;;;;;;;;;;5052953;28;20411;-71
2022/04/16 01:11:32;;;;;;;4.90;4.70;;;;;;;;;;5053273;28;20403;-74
2022/04/16 01:13:58;;;;;;;4.53;4.43;;;;;;;;;;5052882;28;20804;-73
2022/04/16 01:16:24;;;;;;;5.00;4.70;;;;;;;;;;5052844;28;20423;-73
2022/04/16 01:18:50;;;;;;;5.07;4.87;;;;;;;;;;5053113;28;20463;-73
2022/04/16 01:21:18;;;;;;;4.80;4.33;;;;;;;;;;5052990;28;20508;-75
2022/04/16 01:23:44;;;;;;;5.60;4.80;;;;;;;;;;5052691;28;20473;-73
2022/04/16 01:26:10;;;;;;;5.70;5.20;;;;;;;;;;5051659;28;20771;-74
2022/04/16 01:28:36;;;;;;;4.93;4.47;;;;;;;;;;5052870;28;20412;-74
2022/04/16 01:31:04;;;;;;;4.70;4.50;;;;;;;;;;5052675;28;20407;-74
2022/04/16 01:33:30;;;;;;;5.63;4.87;;;;;;;;;;5052881;28;20411;-73
2022/04/16 01:35:59;;;;;;;4.93;4.67;;;;;;;;;;5052594;28;20408;-76
2022/04/16 01:38:28;;;;;;;5.37;4.70;;;;;;;;;;5052645;28;20878;-74
2022/04/16 01:40:59;;;;;;;4.90;4.70;;;;;;;;;;5051403;28;20467;-75
2022/04/16 01:43:26;;;;;;;4.97;4.77;;;;;;;;;;5052687;28;20467;-74
2022/04/16 01:45:52;;;;;;;5.47;5.03;;;;;;;;;;5052971;28;20414;-75
2022/04/16 01:48:19;;;;;;;4.80;4.60;;;;;;;;;;5055620;28;20426;-75
2022/04/16 01:50:48;;;;;;;4.40;4.30;;;;;;;;;;5056753;28;20418;-72
2022/04/16 01:53:14;;;;;;;4.87;4.67;;;;;;;;;;5056328;28;20901;-73
2022/04/16 01:55:41;;;;;;;4.83;4.43;;;;;;;;;;5056502;28;20395;-74
2022/04/16 01:58:07;;;;;;;4.57;4.40;;;;;;;;;;5056428;28;20875;-74
2022/04/16 02:00:35;;;;;;;5.30;5.00;;;;;;;;;;5056237;28;20399;-72
2022/04/16 02:03:02;;;;;;;5.43;5.03;;;;;;;;;;5056311;28;20480;-73
2022/04/16 02:05:30;;;;;;;5.00;4.67;;;;;;;;;;5056261;28;20399;-73
2022/04/16 02:07:56;;;;;;;4.50;4.20;;;;;;;;;;5056211;28;20417;-72
2022/04/16 02:10:22;;;;;;;5.50;4.60;;;;;;;;;;5056148;28;20773;-73
2022/04/16 02:12:49;;;;;;;4.20;4.10;;;;;;;;;;5056111;28;20411;-74
2022/04/16 02:15:15;;;;;;;4.57;4.30;;;;;;;;;;5055979;28;20426;-73
2022/04/16 02:17:41;;;;;;;4.10;4.00;;;;;;;;;;5056161;28;20415;-73
2022/04/16 02:20:08;;;;;;;4.80;4.50;;;;;;;;;;5054453;28;20415;-73
2022/04/16 02:22:47;;;;;;;7.83;4.70;;;;;;;;;;5055697;28;20466;-73
2022/04/16 02:25:14;;;;;;;4.50;4.40;;;;;;;;;;5056098;28;20410;-73
2022/04/16 02:27:43;;;;;;;5.40;4.90;;;;;;;;;;5056124;28;20411;-73
2022/04/16 02:30:13;;;;;;;4.60;4.20;;;;;;;;;;5055837;28;20398;-73
2022/04/16 02:32:40;;;;;;;4.83;4.50;;;;;;;;;;5055797;28;20493;-73
2022/04/16 02:35:06;;;;;;;4.73;4.53;;;;;;;;;;5055745;28;20399;-73
2022/04/16 02:37:32;;;;;;;4.63;4.33;;;;;;;;;;5055681;28;20419;-74
2022/04/16 02:39:58;;;;;;;5.53;5.23;;;;;;;;;;5055839;28;20941;-73
2022/04/16 02:42:27;;;;;;;5.40;4.90;;;;;;;;;;5055280;28;20465;-73
2022/04/16 02:47:37;;;;;;;4.67;4.43;;;;;;;;;;5055861;28;20911;-73
2022/04/16 02:50:06;;;;;;;4.83;4.60;;;;;;;;;;5055481;28;20403;-73
2022/04/16 02:52:37;;;;;;;6.40;4.57;;;;;;;;;;5055300;28;20435;-72
2022/04/16 02:55:06;;;;;;;4.97;4.60;;;;;;;;;;5055297;28;20898;-73
2022/04/16 02:57:32;;;;;;;3.90;3.80;;;;;;;;;;5055361;28;20403;-74
2022/04/16 03:00:01;;;;;;;3.80;3.70;;;;;;;;;;5054206;28;20487;-74
2022/04/16 03:02:27;;;;;;;4.17;4.03;;;;;;;;;;5055218;28;20474;-75
2022/04/16 03:04:54;;;;;;;5.77;4.43;;;;;;;;;;5055131;28;20415;-74
2022/04/16 03:07:23;;;;;;;4.27;4.07;;;;;;;;;;5055224;28;20962;-74
2022/04/16 03:09:49;;;;;;;4.27;4.10;;;;;;;;;;5054941;28;20846;-72
2022/04/16 03:12:14;;;;;;;4.30;4.10;;;;;;;;;;5054905;28;20439;-76
2022/04/16 03:17:35;;;;;;;4.10;3.90;;;;;;;;;;5055076;28;20858;-73
2022/04/16 03:20:05;;;;;;;4.33;4.20;;;;;;;;;;5054890;28;20403;-73
2022/04/16 03:22:33;;;;;;;4.90;4.70;;;;;;;;;;5054757;28;20527;-74
2022/04/16 03:24:59;;;;;;;4.73;4.33;;;;;;;;;;5054857;28;20453;-73
2022/04/16 03:27:25;;;;;;;4.30;4.00;;;;;;;;;;5054889;28;20414;-72
2022/04/16 03:29:51;;;;;;;4.83;4.43;;;;;;;;;;5054927;28;20407;-73
2022/04/16 03:32:17;;;;;;;7.63;4.03;;;;;;;;;;5053560;28;20426;-76
2022/04/16 03:34:45;;;;;;;3.77;3.77;;;;;;;;;;5054632;28;20384;-76
2022/04/16 03:37:13;;;;;;;3.93;3.83;;;;;;;;;;5054735;28;20456;-76
2022/04/16 03:39:42;;;;;;;4.43;4.17;;;;;;;;;;5054353;28;20467;-76
2022/04/16 03:42:09;;;;;;;3.90;3.90;;;;;;;;;;5054430;28;20454;-75
2022/04/16 03:44:37;;;;;;;4.40;4.00;;;;;;;;;;5054765;28;20760;-75
2022/04/16 03:47:03;;;;;;;3.10;3.10;;;;;;;;;;5054351;28;20933;-75
2022/04/16 03:49:29;;;;;;;4.50;4.40;;;;;;;;;;5052505;28;20465;-77
2022/04/16 03:51:57;;;;;;;4.30;4.10;;;;;;;;;;5054526;28;20407;-75
2022/04/16 04:00:03;;;;;;;4.03;3.93;;;;;;;;;;5054593;28;20402;-74
2022/04/16 04:02:31;;;;;;;4.30;4.00;;;;;;;;;;5054060;28;20490;-76
2022/04/16 04:04:57;;;;;;;3.77;3.67;;;;;;;;;;5054126;28;20516;-76
2022/04/16 04:07:25;;;;;;;4.07;3.87;;;;;;;;;;5054054;28;20411;-76
2022/04/16 04:09:51;;;;;;;4.50;4.30;;;;;;;;;;5052716;28;20454;-75
2022/04/16 04:12:22;;;;;;;3.97;3.87;;;;;;;;;;5052714;28;20812;-75
2022/04/16 04:14:48;;;;;;;3.87;3.67;;;;;;;;;;5053704;28;20414;-76
2022/04/16 04:17:17;;;;;;;4.03;3.87;;;;;;;;;;5053899;28;20415;-76
2022/04/16 04:19:44;;;;;;;4.50;4.10;;;;;;;;;;5053850;28;20766;-74
2022/04/16 04:22:11;;;;;;;3.47;3.47;;;;;;;;;;5053723;28;20554;-73
2022/04/16 04:24:38;;;;;;;4.33;4.23;;;;;;;;;;5053783;28;20419;-75
2022/04/16 04:27:06;;;;;;;4.20;3.63;;;;;;;;;;5053469;28;20385;-75
2022/04/16 04:29:35;;;;;;;4.33;4.13;;;;;;;;;;5053681;28;20411;-75
2022/04/16 04:32:01;;;;;;;3.83;3.73;;;;;;;;;;5053718;28;20414;-75
2022/04/16 04:34:27;;;;;;;3.83;3.73;;;;;;;;;;5052278;28;20510;-72
2022/04/16 04:36:53;;;;;;;4.13;3.60;;;;;;;;;;5053558;28;20442;-76
2022/04/16 04:39:19;;;;;;;4.10;4.00;;;;;;;;;;5053369;28;20519;-75
2022/04/16 04:41:46;;;;;;;4.40;4.30;;;;;;;;;;5053177;28;20441;-76
2022/04/16 04:44:12;;;;;;;3.50;3.40;;;;;;;;;;5053593;28;20415;-72
2022/04/16 04:46:39;;;;;;;3.80;3.70;;;;;;;;;;5053156;28;20465;-74
2022/04/16 04:49:08;;;;;;;4.70;4.50;;;;;;;;;;5053445;28;20909;-73
2022/04/16 04:51:35;;;;;;;3.93;3.57;;;;;;;;;;5053333;28;20374;-76
2022/04/16 04:54:01;;;;;;;3.67;3.57;;;;;;;;;;5053123;28;20508;-76
2022/04/16 04:56:28;;;;;;;4.57;4.47;;;;;;;;;;5053302;28;20407;-75
2022/04/16 04:58:54;;;;;;;4.10;3.90;;;;;;;;;;5053297;28;20415;-76
2022/04/16 05:01:20;;;;;;;3.97;3.87;;;;;;;;;;5053162;28;20985;-75
2022/04/16 05:03:46;;;;;;;3.57;3.47;;;;;;;;;;5052957;28;20536;-75
2022/04/16 05:06:12;;;;;;;4.53;4.23;;;;;;;;;;5051795;28;20413;-75
2022/04/16 05:08:38;;;;;;;3.60;3.50;;;;;;;;;;5053058;28;20765;-77
2022/04/16 05:11:04;;;;;;;4.07;3.77;;;;;;;;;;5053012;28;20486;-76
2022/04/16 05:13:30;;;;;;;13.50;12.20;;;;;;;;;;5053160;28;20410;-73
2022/04/16 05:15:58;;;;;;;4.23;4.13;;;;;;;;;;5051829;28;20422;-76
2022/04/16 05:18:25;;;;;;;4.67;4.40;;;;;;;;;;5051773;28;20466;-75
2022/04/16 05:20:52;;;;;;;4.03;3.93;;;;;;;;;;5051982;28;20755;-77
2022/04/16 05:23:18;;;;;;;4.77;4.47;;;;;;;;;;5055564;28;20462;-74
2022/04/16 05:25:44;;;;;;;4.43;4.20;;;;;;;;;;5055925;28;20419;-74
2022/04/16 05:28:10;;;;;;;3.63;3.63;;;;;;;;;;5057120;28;20480;-75
2022/04/16 05:30:44;;;;;;;4.10;3.87;;;;;;;;;;5056807;28;20442;-74
2022/04/16 05:35:58;;;;;;;3.50;3.50;;;;;;;;;;5057069;28;20402;-75
2022/04/16 05:38:26;;;;;;;4.33;4.13;;;;;;;;;;5056846;28;20481;-75
2022/04/16 05:40:52;;;;;;;3.87;3.77;;;;;;;;;;5056581;28;21008;-73
2022/04/16 05:43:21;;;;;;;15.20;13.70;;;;;;;;;;5056944;28;20558;-72
2022/04/16 05:45:47;;;;;;;25.73;22.53;;;;;;;;;;5056838;28;20953;-71
2022/04/16 05:48:13;;;;;;;3.67;3.57;;;;;;;;;;5056795;28;20830;-75
2022/04/16 05:50:40;;;;;;;8.33;3.70;;;;;;;;;;5055483;28;20480;-76
2022/04/16 05:53:07;;;;;;;4.33;4.23;;;;;;;;;;5056783;28;20961;-74
2022/04/16 05:55:34;;;;;;;4.13;3.87;;;;;;;;;;5057257;28;20936;-70
2022/04/16 05:58:00;;;;;;;4.00;3.80;;;;;;;;;;5055439;28;20431;-74
2022/04/16 06:00:27;;;;;;;4.77;4.47;;;;;;;;;;5056726;28;20413;-72
2022/04/16 06:02:53;;;;;;;4.00;3.90;;;;;;;;;;5056552;28;20454;-76
2022/04/16 06:05:21;;;;;;;6.77;6.30;;;;;;;;;;5056698;28;20403;-70
2022/04/16 06:07:47;;;;;;;4.23;3.93;;;;;;;;;;5056872;28;20406;-73
2022/04/16 06:10:13;;;;;;;3.93;3.83;;;;;;;;;;5056608;28;20410;-71
2022/04/16 06:12:41;;;;;;;4.70;4.50;;;;;;;;;;5056459;28;20449;-74
2022/04/16 06:15:07;;;;;;;4.13;4.03;;;;;;;;;;5056391;28;20395;-73
2022/04/16 06:17:33;;;;;;;4.40;4.17;;;;;;;;;;5056440;28;20932;-73
2022/04/16 06:19:59;;;;;;;8.23;4.30;;;;;;;;;;5056382;28;20418;-72
2022/04/16 06:22:28;;;;;;;3.90;3.80;;;;;;;;;;5056215;28;20477;-72
2022/04/16 06:24:54;;;;;;;5.40;5.20;;;;;;;;;;5056350;28;20410;-72
2022/04/16 06:27:20;;;;;;;4.10;3.90;;;;;;;;;;5056182;28;20818;-72
2022/04/16 06:29:51;;;;;;;4.20;4.00;;;;;;;;;;5056199;28;20429;-75
2022/04/16 06:32:17;;;;;;;4.40;4.30;;;;;;;;;;5055968;28;20423;-72
2022/04/16 06:34:43;;;;;;;4.33;4.23;;;;;;;;;;5056014;28;20499;-73
2022/04/16 06:37:09;;;;;;;4.50;4.30;;;;;;;;;;5056071;28;20411;-74
2022/04/16 06:39:35;;;;;;;7.47;6.97;;;;;;;;;;5055864;28;20557;-72
2022/04/16 06:42:06;;;;;;;6.10;5.80;;;;;;;;;;5055816;28;20407;-73
2022/04/16 06:44:32;;;;;;;6.00;5.80;;;;;;;;;;5054697;28;20438;-73
2022/04/16 06:47:01;;;;;;;10.07;9.23;;;;;;;;;;5054587;28;20430;-74
2022/04/16 06:49:27;;;;;;;5.20;5.00;;;;;;;;;;5056628;28;20415;-76
2022/04/16 06:51:53;;;;;;;4.57;4.27;;;;;;;;;;5056189;28;20774;-73
2022/04/16 06:54:19;;;;;;;4.53;4.37;;;;;;;;;;5056141;28;20411;-73
2022/04/16 06:56:45;;;;;;;5.07;4.87;;;;;;;;;;5055961;28;20411;-74
2022/04/16 06:59:11;;;;;;;4.30;4.13;;;;;;;;;;5055874;28;20481;-73
2022/04/16 07:01:37;;;;;;;5.00;4.40;;;;;;;;;;5055667;28;20465;-74
2022/04/16 07:04:03;;;;;;;4.13;3.93;;;;;;;;;;5055630;28;20972;-74
2022/04/16 07:06:29;;;;;;;4.60;4.50;;;;;;;;;;5055553;28;20399;-76
2022/04/16 07:08:55;;;;;;;5.73;5.53;;;;;;;;;;5055528;28;20407;-75
2022/04/16 07:11:21;;;;;;;4.57;4.37;;;;;;;;;;5055482;28;20406;-74
2022/04/16 07:13:47;;;;;;;4.30;4.20;;;;;;;;;;5055342;28;20852;-77
2022/04/16 07:16:13;;;;;;;7.40;5.13;;;;;;;;;;5054092;28;20454;-76
2022/04/16 07:18:39;;;;;;;5.00;4.67;;;;;;;;;;5055261;28;20893;-76
2022/04/16 07:21:05;;;;;;;4.43;4.13;;;;;;;;;;5055565;28;20804;-76
2022/04/16 07:23:31;;;;;;;4.90;4.60;;;;;;;;;;5055050;28;20468;-76
2022/04/16 07:25:57;;;;;;;5.47;5.17;;;;;;;;;;5055131;28;20489;-76
2022/04/16 07:28:23;;;;;;;5.23;4.83;;;;;;;;;;5055157;28;20879;-76
2022/04/16 07:30:50;;;;;;;4.40;4.30;;;;;;;;;;5055070;28;20411;-78
2022/04/16 07:33:16;;;;;;;4.70;4.50;;;;;;;;;;5053668;28;20427;-77
2022/04/16 07:35:42;;;;;;;4.77;4.53;;;;;;;;;;5054999;28;20419;-76
2022/04/16 07:38:08;;;;;;;5.10;4.80;;;;;;;;;;5054890;28;20415;-74
2022/04/16 07:40:34;;;;;;;4.67;4.43;;;;;;;;;;5054709;28;21009;-75
2022/04/16 07:43:01;;;;;;;5.07;4.70;;;;;;;;;;5054516;28;20466;-77
2022/04/16 07:45:27;;;;;;;3.90;3.80;;;;;;;;;;5054174;28;20418;-76
2022/04/16 07:47:53;;;;;;;4.43;4.33;;;;;;;;;;5054758;28;20882;-73
2022/04/16 07:50:21;;;;;;;4.53;4.33;;;;;;;;;;5054713;28;20403;-75
2022/04/16 07:52:48;;;;;;;4.17;4.07;;;;;;;;;;5054674;28;20407;-75
2022/04/16 07:55:14;;;;;;;4.53;4.43;;;;;;;;;;5054605;28;20399;-77
2022/04/16 07:57:40;;;;;;;4.53;4.20;;;;;;;;;;5054432;28;20436;-76
2022/04/16 08:00:07;;;;;;;4.00;3.90;;;;;;;;;;5054509;28;20426;-77
2022/04/16 08:02:33;;;;;;;4.00;3.80;;;;;;;;;;5054354;28;20465;-77
2022/04/16 08:04:58;;;;;;;4.27;4.07;;;;;;;;;;5053123;28;20423;-76
2022/04/16 08:07:25;;;;;;;3.67;3.57;;;;;;;;;;5052973;28;20445;-76
2022/04/16 08:09:51;;;;;;;4.30;3.97;;;;;;;;;;5054336;28;20403;-76
2022/04/16 08:12:17;;;;;;;3.37;3.37;;;;;;;;;;5054240;28;20407;-78
2022/04/16 08:14:43;;;;;;;3.37;3.27;;;;;;;;;;5054209;28;20886;-75
2022/04/16 08:17:09;;;;;;;3.90;3.80;;;;;;;;;;5054169;28;20421;-77
2022/04/16 08:19:35;;;;;;;4.10;3.90;;;;;;;;;;5052858;28;20422;-77
2022/04/16 08:22:06;;;;;;;2.77;2.77;;;;;;;;;;5053985;28;20427;-76
2022/04/16 08:24:41;;;;;;;2.90;2.80;;;;;;;;;;5052672;28;20446;-78
2022/04/16 08:27:07;;;;;;;2.80;2.70;;;;;;;;;;5053844;28;20403;-75
2022/04/16 08:29:33;;;;;;;3.53;3.23;;;;;;;;;;5053920;28;20508;-76
2022/04/16 08:31:59;;;;;;;3.07;2.97;;;;;;;;;;5053931;28;20412;-75
2022/04/16 08:34:25;;;;;;;2.50;2.40;;;;;;;;;;5053875;28;20421;-75
2022/04/16 08:36:51;;;;;;;2.53;2.50;;;;;;;;;;5053868;28;20547;-76
2022/04/16 08:39:17;;;;;;;2.93;2.90;;;;;;;;;;5053601;28;20974;-74
2022/04/16 08:41:43;;;;;;;3.23;2.97;;;;;;;;;;5053787;28;20409;-76
2022/04/16 08:44:10;;;;;;;3.23;3.13;;;;;;;;;;5053624;28;20507;-76
2022/04/16 08:46:36;;;;;;;2.70;2.53;;;;;;;;;;5053645;28;20422;-76
2022/04/16 08:49:02;;;;;;;3.03;2.90;;;;;;;;;;5053647;28;20425;-75
2022/04/16 08:51:30;;;;;;;3.80;3.60;;;;;;;;;;5052362;28;20464;-75
2022/04/16 08:53:56;;;;;;;2.40;2.30;;;;;;;;;;5053567;28;20408;-72
2022/04/16 08:56:22;;;;;;;2.47;2.47;;;;;;;;;;5052795;28;20493;-72
2022/04/16 08:58:48;;;;;;;2.63;2.40;;;;;;;;;;5053334;28;20495;-70
2022/04/16 09:01:16;;;;;;;2.20;2.20;;;;;;;;;;5053516;28;20915;-73
2022/04/16 09:03:43;;;;;;;2.60;2.40;;;;;;;;;;5053375;28;20507;-74
2022/04/16 09:06:09;;;;;;;2.53;2.43;;;;;;;;;;5053404;28;20991;-76
2022/04/16 09:08:35;;;;;;;2.90;2.80;;;;;;;;;;5053507;28;20746;-71
2022/04/16 09:11:10;;;;;;;2.37;2.27;;;;;;;;;;5053303;28;20437;-73
2022/04/16 09:13:36;;;;;;;2.20;2.20;;;;;;;;;;5053306;28;20434;-72
2022/04/16 09:16:06;;;;;;;1.90;1.90;;;;;;;;;;5053217;28;20829;-73
2022/04/16 09:18:33;;;;;;;2.17;2.17;;;;;;;;;;5051943;28;20429;-72
2022/04/16 09:20:59;;;;;;;1.93;1.83;;;;;;;;;;5053486;28;20749;-72
2022/04/16 09:23:25;;;;;;;1.80;1.80;;;;;;;;;;5053045;28;20732;-74
2022/04/16 09:25:51;;;;;;;1.90;1.80;;;;;;;;;;5053021;28;20417;-75
2022/04/16 09:28:22;;;;;;;1.63;1.63;;;;;;;;;;5053096;28;20400;-72
2022/04/16 09:30:49;;;;;;;1.80;1.80;;;;;;;;;;5053078;28;21011;-73
2022/04/16 09:33:15;;;;;;;1.97;1.97;;;;;;;;;;5052916;28;20463;-73
2022/04/16 09:35:41;;;;;;;2.43;1.93;;;;;;;;;;5051668;28;20906;-72
2022/04/16 09:38:07;;;;;;;2.33;2.23;;;;;;;;;;5051779;28;20438;-72
2022/04/16 09:40:34;;;;;;;1.93;1.93;;;;;;;;;;5052750;28;20811;-72
2022/04/16 09:43:01;;;;;;;1.60;1.60;;;;;;;;;;5053042;28;21148;-73
2022/04/16 09:45:28;;;;;;;6.30;2.27;;;;;;;;;;5052811;28;20878;-72
2022/04/16 09:47:54;;;;;;;1.87;1.87;;;;;;;;;;5053175;28;20569;-72
2022/04/16 09:50:21;;;;;;;1.43;1.43;;;;;;;;;;5052967;28;20835;-73
2022/04/16 09:52:51;;;;;;;1.40;1.40;;;;;;;;;;5053025;28;20447;-71
2022/04/16 09:55:19;;;;;;;1.60;1.60;;;;;;;;;;5052867;28;20454;-70
2022/04/16 09:57:46;;;;;;;1.70;1.40;;;;;;;;;;5052946;28;20423;-73
2022/04/16 10:00:12;;;;;;;1.50;1.47;;;;;;;;;;5051618;28;20473;-77
2022/04/16 10:02:41;;;;;;;1.50;1.50;;;;;;;;;;5051398;28;20465;-72
2022/04/16 10:05:09;;;;;;;2.03;1.83;;;;;;;;;;5052790;28;20419;-77
2022/04/16 10:07:36;;;;;;;1.37;1.37;;;;;;;;;;5051738;28;20511;-77
2022/04/16 10:10:14;;;;;;;1.50;1.50;;;;;;;;;;5056557;28;20395;-77
2022/04/16 10:15:25;;;;;;;1.87;1.87;;;;;;;;;;5056478;28;20396;-76
2022/04/16 10:17:52;;;;;;;1.50;1.40;;;;;;;;;;5056386;28;20503;-79
2022/04/16 10:20:19;;;;;;;1.40;1.40;;;;;;;;;;5055152;28;21018;-76
2022/04/16 10:22:57;;;;;;;1.40;1.40;;;;;;;;;;5056642;28;20547;-79
2022/04/16 10:25:35;;;;;;;1.57;1.40;;;;;;;;;;5056327;28;20803;-75
2022/04/16 10:28:03;;;;;;;1.70;1.70;;;;;;;;;;5056557;28;20725;-77
2022/04/16 10:30:43;;;;;;;1.30;1.30;;;;;;;;;;5056186;28;20413;-77
2022/04/16 10:33:19;;;;;;;1.20;1.20;;;;;;;;;;5056098;28;20421;-74
2022/04/16 10:36:09;;;;;;;2.13;2.03;;;;;;;;;;5056054;28;20426;-76
2022/04/16 10:38:36;;;;;;;1.10;1.10;;;;;;;;;;5056289;28;20457;-76
2022/04/16 10:41:09;;;;;;;1.23;1.13;;;;;;;;;;5055678;28;20467;-78
2022/04/16 10:43:35;;;;;;;1.20;1.20;;;;;;;;;;5054495;28;20616;-78
2022/04/16 10:46:03;;;;;;;1.40;1.40;;;;;;;;;;5054550;28;20846;-78
2022/04/16 10:48:31;;;;;;;1.53;1.43;;;;;;;;;;5055861;28;20513;-77
2022/04/16 10:50:58;;;;;;;1.50;1.50;;;;;;;;;;5054593;28;20462;-78
2022/04/16 10:53:32;;;;;;;1.47;1.47;;;;;;;;;;5056290;28;20421;-78
2022/04/16 10:56:06;;;;;;;1.40;1.40;;;;;;;;;;5054486;28;20836;-75
2022/04/16 10:58:33;;;;;;;0.93;0.93;;;;;;;;;;5055855;28;20895;-72
2022/04/16 11:01:26;;;;;;;1.53;1.40;;;;;;;;;;5055480;28;20441;-74
2022/04/16 11:03:54;;;;;;;2.60;1.40;;;;;;;;;;5053696;28;20973;-68
2022/04/16 11:06:20;;;;;;;1.00;1.00;;;;;;;;;;5055285;28;20449;-77
2022/04/16 11:08:46;;;;;;;1.30;1.30;;;;;;;;;;5054899;28;20440;-75
2022/04/16 11:11:13;;;;;;;1.37;1.37;;;;;;;;;;5055169;28;20412;-73
2022/04/16 11:13:39;;;;;;;1.10;1.10;;;;;;;;;;5055487;28;20415;-76
2022/04/16 11:16:06;;;;;;;12.50;6.03;;;;;;;;;;5055217;28;20405;-71
2022/04/16 11:18:43;;;;;;;3.03;1.30;;;;;;;;;;5055533;28;20521;-72
2022/04/16 11:21:10;;;;;;;1.83;1.20;;;;;;;;;;5054525;28;20462;-72
2022/04/16 11:23:39;;;;;;;1.10;1.10;;;;;;;;;;5055052;28;20580;-72
2022/04/16 11:34:26;;;;;;;1.20;1.20;;;;;;;;;;5055237;28;20896;-73
2022/04/16 11:36:53;;;;;;;1.30;1.30;;;;;;;;;;5054816;28;20500;-71
2022/04/16 11:39:23;;;;;;;1.10;1.10;;;;;;;;;;5054562;28;20820;-72
2022/04/16 11:41:51;;;;;;;4.57;1.33;;;;;;;;;;5054350;28;20410;-75
2022/04/16 11:44:17;;;;;;;3.23;1.03;;;;;;;;;;5052809;28;20479;-72
2022/04/16 11:46:43;;;;;;;1.17;1.10;;;;;;;;;;5055013;28;20487;-74
2022/04/16 11:49:11;;;;;;;1.13;1.13;;;;;;;;;;5054475;28;20427;-73
2022/04/16 11:51:38;;;;;;;1.00;1.00;;;;;;;;;;5054456;28;20407;-74
2022/04/16 11:54:05;;;;;;;1.27;1.20;;;;;;;;;;5054570;28;20401;-76
2022/04/16 11:56:31;;;;;;;1.10;1.10;;;;;;;;;;5054462;28;20890;-75
2022/04/16 11:58:57;;;;;;;1.23;1.23;;;;;;;;;;5054461;28;20492;-73
2022/04/16 12:01:23;;;;;;;1.80;1.57;;;;;;;;;;5054499;28;20495;-74
2022/04/16 12:03:52;;;;;;;2.57;2.37;;;;;;;;;;5054377;28;21012;-72
2022/04/16 12:06:18;;;;;;;1.63;1.63;;;;;;;;;;5054537;28;20481;-71
2022/04/16 12:08:44;;;;;;;4.70;4.10;;;;;;;;;;5054183;28;20877;-72
2022/04/16 12:11:10;;;;;;;1.43;1.30;;;;;;;;;;5054199;28;20436;-73
2022/04/16 12:13:37;;;;;;;0.83;0.83;;;;;;;;;;5054238;28;20417;-73
2022/04/16 12:16:05;;;;;;;1.13;1.13;;;;;;;;;;5053968;28;20429;-76
2022/04/16 12:18:38;;;;;;;1.70;1.13;;;;;;;;;;5054064;28;20418;-75
2022/04/16 12:21:14;;;;;;;1.83;1.10;;;;;;;;;;5054199;28;20461;-72
2022/04/16 12:23:43;;;;;;;2.00;1.40;;;;;;;;;;5053997;28;20463;-73
2022/04/16 12:26:11;;;;;;;1.30;1.30;;;;;;;;;;5053588;28;20405;-73
2022/04/16 12:28:41;;;;;;;1.37;1.37;;;;;;;;;;5053569;28;20413;-74
2022/04/16 12:31:07;;;;;;;1.47;1.37;;;;;;;;;;5053460;28;20801;-71
2022/04/16 12:33:33;;;;;;;1.60;1.60;;;;;;;;;;5052636;28;20434;-75
2022/04/16 12:36:00;;;;;;;1.20;1.20;;;;;;;;;;5053513;28;20466;-73
2022/04/16 12:38:26;;;;;;;1.40;1.40;;;;;;;;;;5053546;28;20424;-74
2022/04/16 12:40:52;;;;;;;2.30;1.50;;;;;;;;;;5053576;28;20469;-75
2022/04/16 12:43:18;;;;;;;2.00;1.70;;;;;;;;;;5048519;28;20474;-77
2022/04/16 12:45:44;;;;;;;1.50;1.50;;;;;;;;;;5051239;28;20412;-76
2022/04/16 12:48:10;;;;;;;1.70;1.60;;;;;;;;;;5051080;28;20488;-75
2022/04/16 12:50:36;;;;;;;1.77;1.67;;;;;;;;;;5051234;28;20898;-73
2022/04/16 12:53:04;;;;;;;2.40;1.33;;;;;;;;;;5050984;28;20875;-70
2022/04/16 12:55:31;;;;;;;1.80;1.47;;;;;;;;;;5051000;28;20412;-75
2022/04/16 12:57:57;;;;;;;1.50;1.50;;;;;;;;;;5051781;28;20438;-75
2022/04/16 13:00:23;;;;;;;1.70;1.60;;;;;;;;;;5053802;28;20406;-77
2022/04/16 13:02:49;;;;;;;2.33;1.77;;;;;;;;;;5053317;28;20475;-75
2022/04/16 13:05:16;;;;;;;1.77;1.77;;;;;;;;;;5052033;28;20419;-76
2022/04/16 13:07:46;;;;;;;1.60;1.60;;;;;;;;;;5052063;28;20427;-74
2022/04/16 13:10:12;;;;;;;1.53;1.40;;;;;;;;;;5053355;28;20761;-76
2022/04/16 13:12:38;;;;;;;6.13;5.80;;;;;;;;;;5051522;28;20424;-73
2022/04/16 13:15:08;;;;;;;6.23;2.30;;;;;;;;;;5053007;28;20470;-81
2022/04/16 13:17:34;;;;;;;5.13;2.00;;;;;;;;;;5053267;28;20419;-77
2022/04/16 13:20:00;;;;;;;1.70;1.70;;;;;;;;;;5052965;28;20916;-77
2022/04/16 13:22:27;;;;;;;2.43;1.67;;;;;;;;;;5048827;28;20948;-78
2022/04/16 13:24:53;;;;;;;1.60;1.60;;;;;;;;;;5051288;28;20439;-73
2022/04/16 13:27:19;;;;;;;2.13;1.80;;;;;;;;;;5053214;28;20411;-77
2022/04/16 13:29:45;;;;;;;1.50;1.50;;;;;;;;;;5053179;28;20438;-76
2022/04/16 13:32:11;;;;;;;1.50;1.50;;;;;;;;;;5053156;28;20902;-75
2022/04/16 13:34:39;;;;;;;1.93;1.83;;;;;;;;;;5051838;28;20864;-75
2022/04/16 13:37:06;;;;;;;1.73;1.63;;;;;;;;;;5053412;28;20408;-73
2022/04/16 13:42:17;;;;;;;1.77;1.67;;;;;;;;;;5052222;28;20475;-74
2022/04/16 13:44:43;;;;;;;1.80;1.70;;;;;;;;;;5056765;28;20548;-75
2022/04/16 13:47:09;;;;;;;1.30;1.30;;;;;;;;;;5055763;28;20445;-73
2022/04/16 13:49:35;;;;;;;1.73;1.63;;;;;;;;;;5057005;28;20436;-73
2022/04/16 13:52:01;;;;;;;12.20;11.33;;;;;;;;;;5057030;28;20407;-76
2022/04/16 13:54:27;;;;;;;1.80;1.80;;;;;;;;;;5056937;28;20545;-73
2022/04/16 13:56:53;;;;;;;2.40;1.60;;;;;;;;;;5056993;28;20414;-77
2022/04/16 13:59:19;;;;;;;1.63;1.63;;;;;;;;;;5057055;28;20568;-77
2022/04/16 14:01:50;;;;;;;4.00;1.67;;;;;;;;;;5056769;28;20916;-74
2022/04/16 14:04:15;;;;;;;1.37;1.37;;;;;;;;;;5056556;28;21031;-73
2022/04/16 14:06:42;;;;;;;1.70;1.67;;;;;;;;;;5056695;28;20469;-74
2022/04/16 14:09:08;;;;;;;1.37;1.37;;;;;;;;;;5055426;28;20442;-76
2022/04/16 14:11:34;;;;;;;1.70;1.70;;;;;;;;;;5056588;28;20446;-74
2022/04/16 14:14:01;;;;;;;1.60;1.50;;;;;;;;;;5056592;28;20407;-75
2022/04/16 14:16:27;;;;;;;1.80;1.80;;;;;;;;;;5056561;28;20802;-73
2022/04/16 14:18:53;;;;;;;2.63;1.77;;;;;;;;;;5056412;28;20427;-74
2022/04/16 14:21:19;;;;;;;1.43;1.43;;;;;;;;;;5056375;28;20399;-75
2022/04/16 14:23:45;;;;;;;1.73;1.73;;;;;;;;;;5056282;28;20492;-74
2022/04/16 14:26:12;;;;;;;1.80;1.80;;;;;;;;;;5056354;28;20410;-73
2022/04/16 14:28:39;;;;;;;1.33;1.23;;;;;;;;;;5056248;28;20409;-75
2022/04/16 14:31:05;;;;;;;1.67;1.57;;;;;;;;;;5054740;28;20444;-75
2022/04/16 14:33:35;;;;;;;1.73;1.63;;;;;;;;;;5056069;28;20952;-76
2022/04/16 14:36:04;;;;;;;2.10;2.00;;;;;;;;;;5056119;28;20953;-74
2022/04/16 14:38:32;;;;;;;1.73;1.73;;;;;;;;;;5056163;28;20790;-75
2022/04/16 14:41:09;;;;;;;1.73;1.70;;;;;;;;;;5055959;28;20458;-76
2022/04/16 14:43:40;;;;;;;1.97;1.97;;;;;;;;;;5056097;28;20465;-76
2022/04/16 14:46:06;;;;;;;1.90;1.80;;;;;;;;;;5056012;28;20447;-74
2022/04/16 14:48:33;;;;;;;2.00;1.90;;;;;;;;;;5055836;28;20413;-74
2022/04/16 14:51:01;;;;;;;2.27;2.07;;;;;;;;;;5055846;28;20493;-75
2022/04/16 14:53:27;;;;;;;2.50;2.40;;;;;;;;;;5056282;28;20567;-75
2022/04/16 14:55:53;;;;;;;2.50;2.10;;;;;;;;;;5055530;28;20412;-74
2022/04/16 14:58:19;;;;;;;2.30;2.20;;;;;;;;;;5055752;28;20404;-77
2022/04/16 15:00:45;;;;;;;9.50;2.30;;;;;;;;;;5056546;28;20403;-77
2022/04/16 15:03:11;;;;;;;1.80;1.70;;;;;;;;;;5056543;28;20481;-74
2022/04/16 15:05:37;;;;;;;2.93;2.10;;;;;;;;;;5054456;28;20515;-73
2022/04/16 15:08:03;;;;;;;1.40;1.40;;;;;;;;;;5055807;28;20450;-74
2022/04/16 15:10:29;;;;;;;2.50;2.50;;;;;;;;;;5054255;28;20418;-73